Estación de Algarrobo Bajo INIA
Ultimos registro cada 15 minutos 91
| N° | Estación | Fecha / Hora | Temperatura | Humedad | Lluvia | Velocidad | Dirección | Radiación | Presion |
| 91 | Algarrobo Bajo INIA | 31-08-2026 22:30 | 11,7 | 72,8 | 0 | 0,4 | 311 | 0 | 0 |
| 90 | Algarrobo Bajo INIA | 31-08-2026 22:15 | 12,3 | 69,9 | 0 | 0 | 341 | 0 | 0 |
| 89 | Algarrobo Bajo INIA | 31-08-2026 22:00 | 12,1 | 69,5 | 0 | 0,5 | 39 | 0 | 0 |
| 88 | Algarrobo Bajo INIA | 31-08-2026 21:45 | 12,2 | 72,8 | 0 | 0,7 | 5 | 0 | 0 |
| 87 | Algarrobo Bajo INIA | 31-08-2026 21:30 | 12,5 | 66,7 | 0 | 1,1 | 335 | 0,1 | 0 |
| 86 | Algarrobo Bajo INIA | 31-08-2026 21:15 | 12,2 | 69,2 | 0 | 0,2 | 331 | 0 | 0 |
| 85 | Algarrobo Bajo INIA | 31-08-2026 21:00 | 12,7 | 67 | 0 | 0,4 | 330 | 0 | 0 |
| 84 | Algarrobo Bajo INIA | 31-08-2026 20:45 | 12,9 | 66,5 | 0 | 0,9 | 325 | 0 | 0 |
| 83 | Algarrobo Bajo INIA | 31-08-2026 20:30 | 13 | 65,2 | 0 | 0,8 | 325 | 0 | 0 |
| 82 | Algarrobo Bajo INIA | 31-08-2026 20:15 | 13,1 | 65,5 | 0 | 1,2 | 331 | 0 | 0 |
| 81 | Algarrobo Bajo INIA | 31-08-2026 20:00 | 13,5 | 64,8 | 0 | 1 | 328 | 0 | 0 |
| 80 | Algarrobo Bajo INIA | 31-08-2026 19:45 | 14,2 | 62,7 | 0 | 0,5 | 330 | 0 | 0 |
| 79 | Algarrobo Bajo INIA | 31-08-2026 19:30 | 14,4 | 60,1 | 0 | 0,3 | 306 | 0,1 | 0 |
| 78 | Algarrobo Bajo INIA | 31-08-2026 19:15 | 14,6 | 58,6 | 0 | 0,2 | 297 | 0,1 | 0 |
| 77 | Algarrobo Bajo INIA | 31-08-2026 19:00 | 15,2 | 59,6 | 0 | 0,3 | 273 | 0,2 | 0 |
| 76 | Algarrobo Bajo INIA | 31-08-2026 18:45 | 15,9 | 55,2 | 0 | 1 | 240 | 2,1 | 0 |
| 75 | Algarrobo Bajo INIA | 31-08-2026 18:30 | 16,4 | 55,4 | 0 | 0,5 | 258 | 7 | 0 |
| 74 | Algarrobo Bajo INIA | 31-08-2026 18:15 | 17,8 | 52,5 | 0 | 1,2 | 246 | 31,6 | 0 |
| 73 | Algarrobo Bajo INIA | 31-08-2026 18:00 | 18,7 | 49 | 0 | 1,4 | 260 | 84 | 0 |
| 72 | Algarrobo Bajo INIA | 31-08-2026 17:45 | 19,3 | 46,1 | 0 | 1,4 | 248 | 134,3 | 0 |
| 71 | Algarrobo Bajo INIA | 31-08-2026 17:30 | 19,6 | 44,4 | 0 | 1,8 | 246 | 178,8 | 0 |
| 70 | Algarrobo Bajo INIA | 31-08-2026 17:15 | 19,8 | 44,2 | 0 | 2,1 | 236 | 224,4 | 0 |
| 69 | Algarrobo Bajo INIA | 31-08-2026 17:00 | 19,9 | 44,6 | 0 | 2,6 | 250 | 270,1 | 0 |
| 68 | Algarrobo Bajo INIA | 31-08-2026 16:45 | 20,2 | 41,7 | 0 | 2,5 | 243 | 315,4 | 0 |
| 67 | Algarrobo Bajo INIA | 31-08-2026 16:30 | 20,3 | 42,2 | 0 | 2,5 | 237 | 359,7 | 0 |
| 66 | Algarrobo Bajo INIA | 31-08-2026 16:15 | 20,4 | 41,4 | 0 | 3 | 230 | 402 | 0 |
| 65 | Algarrobo Bajo INIA | 31-08-2026 16:00 | 20,2 | 42,1 | 0 | 3,3 | 221 | 442,1 | 0 |
| 64 | Algarrobo Bajo INIA | 31-08-2026 15:45 | 20,6 | 42,9 | 0 | 3,8 | 229 | 479,5 | 0 |
| 63 | Algarrobo Bajo INIA | 31-08-2026 15:30 | 20,8 | 44 | 0 | 3,2 | 214 | 515,3 | 0 |
| 62 | Algarrobo Bajo INIA | 31-08-2026 15:15 | 20,7 | 42,3 | 0 | 4 | 237 | 547,7 | 0 |
| 61 | Algarrobo Bajo INIA | 31-08-2026 15:00 | 21 | 42,4 | 0 | 4,2 | 230 | 576,2 | 0 |
| 60 | Algarrobo Bajo INIA | 31-08-2026 14:45 | 21,8 | 42,7 | 0 | 3,9 | 230 | 602,4 | 0 |
| 59 | Algarrobo Bajo INIA | 31-08-2026 14:30 | 23,3 | 42,1 | 0 | 2,9 | 225 | 625,9 | 0 |
| 58 | Algarrobo Bajo INIA | 31-08-2026 14:15 | 23,6 | 38,6 | 0 | 1,9 | 215 | 648,1 | 0 |
| 57 | Algarrobo Bajo INIA | 31-08-2026 14:00 | 23,6 | 41,7 | 0 | 1,8 | 196 | 666,5 | 0 |
| 56 | Algarrobo Bajo INIA | 31-08-2026 13:45 | 23,3 | 39,9 | 0 | 1,1 | 277 | 681,2 | 0 |
| 55 | Algarrobo Bajo INIA | 31-08-2026 13:30 | 23 | 39,9 | 0 | 0,9 | 306 | 690,8 | 0 |
| 54 | Algarrobo Bajo INIA | 31-08-2026 13:15 | 23 | 37,9 | 0 | 1,3 | 232 | 698,3 | 0 |
| 53 | Algarrobo Bajo INIA | 31-08-2026 13:00 | 22,5 | 41,2 | 0 | 0,9 | 242 | 702,8 | 0 |
| 52 | Algarrobo Bajo INIA | 31-08-2026 12:45 | 22,6 | 42,1 | 0 | 0,9 | 153 | 702,3 | 0 |
| 51 | Algarrobo Bajo INIA | 31-08-2026 12:30 | 22 | 43,4 | 0 | 0,8 | 295 | 696,9 | 0 |
| 50 | Algarrobo Bajo INIA | 31-08-2026 12:15 | 22,2 | 41,7 | 0 | 1,1 | 312 | 689,1 | 0 |
| 49 | Algarrobo Bajo INIA | 31-08-2026 12:00 | 21,7 | 42,1 | 0 | 0,9 | 30 | 677,1 | 0 |
| 48 | Algarrobo Bajo INIA | 31-08-2026 11:45 | 21,4 | 44,8 | 0 | 1,2 | 98 | 662 | 0 |
| 47 | Algarrobo Bajo INIA | 31-08-2026 11:30 | 20,8 | 46,2 | 0 | 1,2 | 76 | 642,7 | 0 |
| 46 | Algarrobo Bajo INIA | 31-08-2026 11:15 | 20,2 | 48,8 | 0 | 1,9 | 47 | 620 | 0 |
| 45 | Algarrobo Bajo INIA | 31-08-2026 11:00 | 20 | 49,2 | 0 | 1,5 | 74 | 594,2 | 0 |
| 44 | Algarrobo Bajo INIA | 31-08-2026 10:45 | 19,4 | 52,2 | 0 | 1,2 | 78 | 565,2 | 0 |
| 43 | Algarrobo Bajo INIA | 31-08-2026 10:30 | 19 | 56,4 | 0 | 1,3 | 62 | 534,3 | 0 |
| 42 | Algarrobo Bajo INIA | 31-08-2026 10:15 | 18,6 | 58,5 | 0 | 0,6 | 77 | 500,1 | 0 |
| 41 | Algarrobo Bajo INIA | 31-08-2026 10:00 | 17,7 | 62,8 | 0 | 0,2 | 67 | 462,5 | 0 |
| 40 | Algarrobo Bajo INIA | 31-08-2026 09:45 | 17 | 63,1 | 0 | 0,2 | 109 | 422,3 | 0 |
| 39 | Algarrobo Bajo INIA | 31-08-2026 09:30 | 16,4 | 64,5 | 0 | 0,2 | 178 | 380 | 0 |
| 38 | Algarrobo Bajo INIA | 31-08-2026 09:15 | 15 | 75,3 | 0 | 0,2 | 230 | 334,9 | 0 |
| 37 | Algarrobo Bajo INIA | 31-08-2026 09:00 | 14 | 83,3 | 0 | 0,8 | 232 | 288,8 | 0 |
| 36 | Algarrobo Bajo INIA | 31-08-2026 08:45 | 13,3 | 88 | 0 | 0,5 | 196 | 241,4 | 0 |
| 35 | Algarrobo Bajo INIA | 31-08-2026 08:30 | 12,6 | 91,1 | 0 | 0,6 | 235 | 197,7 | 0 |
| 34 | Algarrobo Bajo INIA | 31-08-2026 08:15 | 12,1 | 93 | 0 | 0,1 | 224 | 165,3 | 0 |
| 33 | Algarrobo Bajo INIA | 31-08-2026 08:00 | 10,8 | 94,4 | 0 | 0 | 0 | 126,9 | 0 |
| 32 | Algarrobo Bajo INIA | 31-08-2026 07:45 | 10,2 | 94,3 | 0 | 0 | 0 | 32,4 | 0 |
| 31 | Algarrobo Bajo INIA | 31-08-2026 07:30 | 10,4 | 93,4 | 0 | 0 | 0 | 23,8 | 0 |
| 30 | Algarrobo Bajo INIA | 31-08-2026 07:15 | 10,6 | 93,4 | 0 | 0 | 0 | 7,1 | 0 |
| 29 | Algarrobo Bajo INIA | 31-08-2026 07:00 | 10,6 | 93,3 | 0 | 0 | 0 | 1,5 | 0 |
| 28 | Algarrobo Bajo INIA | 31-08-2026 06:45 | 10,4 | 93 | 0 | 0 | 0 | 0,6 | 0 |
| 27 | Algarrobo Bajo INIA | 31-08-2026 06:30 | 10,5 | 92,4 | 0 | 0 | 86 | 0,6 | 0 |
| 26 | Algarrobo Bajo INIA | 31-08-2026 06:15 | 10,5 | 92,1 | 0 | 0 | 49 | 0,5 | 0 |
| 25 | Algarrobo Bajo INIA | 31-08-2026 06:00 | 10,5 | 92,2 | 0 | 0,1 | 318 | 0,6 | 0 |
| 24 | Algarrobo Bajo INIA | 31-08-2026 05:45 | 10,3 | 92,4 | 0 | 0,3 | 312 | 0,6 | 0 |
| 23 | Algarrobo Bajo INIA | 31-08-2026 05:30 | 10,5 | 92,3 | 0 | 0,1 | 324 | 0,6 | 0 |
| 22 | Algarrobo Bajo INIA | 31-08-2026 05:15 | 10,8 | 92,1 | 0 | 0,2 | 342 | 0,6 | 0 |
| 21 | Algarrobo Bajo INIA | 31-08-2026 05:00 | 11 | 92,7 | 0 | 0,4 | 343 | 0,6 | 0 |
| 20 | Algarrobo Bajo INIA | 31-08-2026 04:45 | 11 | 93,9 | 0 | 0,3 | 336 | 0,6 | 0 |
| 19 | Algarrobo Bajo INIA | 31-08-2026 04:30 | 10,9 | 93,5 | 0 | 0 | 0 | 0,6 | 0 |
| 18 | Algarrobo Bajo INIA | 31-08-2026 04:15 | 11,2 | 93,1 | 0 | 0 | 0 | 0,6 | 0 |
| 17 | Algarrobo Bajo INIA | 31-08-2026 04:00 | 11,3 | 93,6 | 0 | 0 | 344 | 0,6 | 0 |
| 16 | Algarrobo Bajo INIA | 31-08-2026 03:45 | 11,6 | 93,7 | 0 | 0,2 | 329 | 0,6 | 0 |
| 15 | Algarrobo Bajo INIA | 31-08-2026 03:30 | 11,9 | 94,4 | 0 | 0,3 | 340 | 0,6 | 0 |
| 14 | Algarrobo Bajo INIA | 31-08-2026 03:15 | 12 | 94,4 | 0 | 0,3 | 279 | 0,6 | 0 |
| 13 | Algarrobo Bajo INIA | 31-08-2026 03:00 | 12,2 | 94,6 | 0 | 0,1 | 270 | 0,7 | 0 |
| 12 | Algarrobo Bajo INIA | 31-08-2026 02:45 | 12,3 | 94,1 | 0 | 0,4 | 259 | 0,8 | 0 |
| 11 | Algarrobo Bajo INIA | 31-08-2026 02:30 | 12,5 | 93,1 | 0,2 | 0,8 | 221 | 0,8 | 0 |
| 10 | Algarrobo Bajo INIA | 31-08-2026 02:15 | 12,8 | 91,5 | 0 | 0,1 | 217 | 0,8 | 0 |
| 9 | Algarrobo Bajo INIA | 31-08-2026 02:00 | 13 | 90,8 | 0 | 0,2 | 39 | 0,8 | 0 |
| 8 | Algarrobo Bajo INIA | 31-08-2026 01:45 | 12,9 | 91,1 | 0,1 | 1,2 | 33 | 0,6 | 0 |
| 7 | Algarrobo Bajo INIA | 31-08-2026 01:30 | 12,8 | 91,3 | 0 | 1 | 49 | 0,4 | 0 |
| 6 | Algarrobo Bajo INIA | 31-08-2026 01:15 | 12,7 | 92 | 0 | 1,8 | 53 | 0,4 | 0 |
| 5 | Algarrobo Bajo INIA | 31-08-2026 01:00 | 12,8 | 91 | 0 | 1,5 | 49 | 0,7 | 0 |
| 4 | Algarrobo Bajo INIA | 31-08-2026 00:45 | 12,8 | 90,6 | 0 | 0,5 | 49 | 0,7 | 0 |
| 3 | Algarrobo Bajo INIA | 31-08-2026 00:30 | 12,8 | 89,6 | 0 | 0,2 | 76 | 0,3 | 0 |
| 2 | Algarrobo Bajo INIA | 31-08-2026 00:15 | 13 | 88,3 | 0 | 1 | 56 | 0 | 0 |
| 1 | Algarrobo Bajo INIA | 31-08-2026 00:00 | 13 | 88,8 | 0 | 0,9 | 7 | 0 | 0 |